Time;durP1;ratioP1;P1;durP2;ratioP2;P2;SDS_P1;SDS_P2;PMS_P1;PMS_P2;Temp;Humidity;BMP_temperature;BMP_pressure;BME280_temperature;BME280_humidity;BME280_pressure;Samples;Min_cycle;Max_cycle;Signal;HPM_P1;HPM_P2
2023/08/01 00:02:24;;;;;;;;;;;17.00;99.90;;;;;;6025700;23;19955;-69
2023/08/01 00:04:49;;;;;;;;;;;16.80;99.90;;;;;;6024978;23;19929;-69
2023/08/01 00:07:15;;;;;;;;;;;16.70;99.90;;;;;;6027144;23;20529;-68
2023/08/01 00:09:40;;;;;;;;;;;16.60;99.90;;;;;;6026277;23;19924;-69
2023/08/01 00:12:06;;;;;;;;;;;16.60;99.90;;;;;;6025191;23;20013;-70
2023/08/01 00:14:32;;;;;;;;;;;16.60;99.90;;;;;;6025239;23;19959;-69
2023/08/01 00:16:58;;;;;;;;;;;16.50;99.90;;;;;;6023707;23;19927;-69
2023/08/01 00:22:08;;;;;;;;;;;16.30;99.90;;;;;;6024966;23;20753;-69
2023/08/01 00:24:36;;;;;;;;;;;16.30;99.90;;;;;;6026196;23;19929;-64
2023/08/01 00:27:01;;;;;;;;;;;16.30;99.90;;;;;;6024431;23;19969;-65
2023/08/01 00:29:27;;;;;;;;;;;16.30;99.90;;;;;;6025689;23;19962;-64
2023/08/01 00:31:52;;;;;;;;;;;16.20;99.90;;;;;;6024093;23;19962;-64
2023/08/01 00:34:18;;;;;;;;;;;16.20;99.90;;;;;;6026059;23;19990;-65
2023/08/01 00:36:43;;;;;;;;;;;16.20;99.90;;;;;;6025061;23;19927;-65
2023/08/01 00:39:09;;;;;;;;;;;16.10;99.90;;;;;;6026392;23;20050;-64
2023/08/01 00:41:35;;;;;;;;;;;16.00;99.90;;;;;;6024202;23;20011;-65
2023/08/01 00:44:00;;;;;;;;;;;15.90;99.90;;;;;;6021446;23;19984;-64
2023/08/01 00:46:26;;;;;;;;;;;15.90;99.90;;;;;;6022578;23;20347;-65
2023/08/01 00:48:52;;;;;;;;;;;15.90;99.90;;;;;;6019347;23;20391;-65
2023/08/01 00:51:18;;;;;;;;;;;15.90;99.90;;;;;;6026063;23;19941;-64
2023/08/01 00:53:46;;;;;;;;;;;15.90;99.90;;;;;;6026397;23;20025;-64
2023/08/01 00:56:11;;;;;;;;;;;15.90;99.90;;;;;;6024272;23;19930;-64
2023/08/01 00:58:37;;;;;;;;;;;15.90;99.90;;;;;;6023217;23;20260;-65
2023/08/01 01:01:03;;;;;;;;;;;16.00;99.90;;;;;;6022318;23;19950;-64
2023/08/01 01:03:30;;;;;;;;;;;16.00;99.90;;;;;;6000198;23;20356;-64
2023/08/01 01:06:15;;;;;;;;;;;15.90;99.90;;;;;;6019955;23;20230;-64
2023/08/01 01:08:41;;;;;;;;;;;15.80;99.90;;;;;;6021950;23;19937;-64
2023/08/01 01:11:07;;;;;;;;;;;15.70;99.90;;;;;;6022441;23;20005;-64
2023/08/01 01:13:33;;;;;;;;;;;15.70;99.90;;;;;;6017479;23;19929;-64
2023/08/01 01:15:59;;;;;;;;;;;15.70;99.90;;;;;;6020060;23;19980;-65
2023/08/01 01:18:25;;;;;;;;;;;15.70;99.90;;;;;;6021035;23;19937;-64
2023/08/01 01:20:51;;;;;;;;;;;15.70;99.90;;;;;;6020835;23;19961;-64
2023/08/01 01:23:18;;;;;;;;;;;15.60;99.90;;;;;;6020347;23;19937;-64
2023/08/01 01:25:45;;;;;;;;;;;15.60;99.90;;;;;;6018862;23;20290;-64
2023/08/01 01:28:11;;;;;;;;;;;15.60;99.90;;;;;;6021439;23;20012;-64
2023/08/01 01:30:37;;;;;;;;;;;15.60;99.90;;;;;;6018016;23;20646;-64
2023/08/01 01:33:03;;;;;;;;;;;15.60;99.90;;;;;;6021169;23;20590;-64
2023/08/01 01:35:29;;;;;;;;;;;15.60;99.90;;;;;;6017691;23;20382;-64
2023/08/01 01:37:55;;;;;;;;;;;15.60;99.90;;;;;;6020862;23;19924;-68
2023/08/01 01:40:20;;;;;;;;;;;15.60;99.90;;;;;;6023360;23;20003;-74
2023/08/01 01:42:45;;;;;;;;;;;15.60;99.90;;;;;;6019678;23;19935;-68
2023/08/01 01:45:11;;;;;;;;;;;15.60;99.90;;;;;;6020322;23;20319;-69
2023/08/01 01:47:37;;;;;;;;;;;15.60;99.90;;;;;;6016781;23;20598;-69
2023/08/01 01:50:03;;;;;;;;;;;15.60;99.90;;;;;;6017565;23;19929;-68
2023/08/01 01:52:28;;;;;;;;;;;15.70;99.90;;;;;;6019161;23;20000;-68
2023/08/01 01:54:54;;;;;;;;;;;15.70;99.90;;;;;;6020574;23;20446;-68
2023/08/01 01:57:19;;;;;;;;;;;15.70;99.90;;;;;;6016600;23;20006;-68
2023/08/01 01:59:45;;;;;;;;;;;15.70;99.90;;;;;;6017938;23;20013;-67
2023/08/01 02:02:10;;;;;;;;;;;15.60;99.90;;;;;;6021042;23;19933;-68
2023/08/01 02:04:36;;;;;;;;;;;15.60;99.90;;;;;;6021354;23;20325;-68
2023/08/01 02:07:02;;;;;;;;;;;15.60;99.90;;;;;;6021281;23;20258;-67
2023/08/01 02:09:28;;;;;;;;;;;15.60;99.90;;;;;;6021248;23;19937;-68
2023/08/01 02:11:53;;;;;;;;;;;15.60;99.90;;;;;;6024960;23;20675;-68
2023/08/01 02:14:19;;;;;;;;;;;15.70;99.90;;;;;;6021831;23;19927;-67
2023/08/01 02:16:45;;;;;;;;;;;15.70;99.90;;;;;;6022900;23;20047;-68
2023/08/01 02:19:10;;;;;;;;;;;15.80;99.90;;;;;;6019273;23;20086;-68
2023/08/01 02:21:36;;;;;;;;;;;15.70;99.90;;;;;;6020087;23;20034;-67
2023/08/01 02:24:01;;;;;;;;;;;15.70;99.90;;;;;;6020608;23;20007;-68
2023/08/01 02:26:28;;;;;;;;;;;15.80;99.90;;;;;;6021334;23;20236;-67
2023/08/01 02:28:54;;;;;;;;;;;15.80;99.90;;;;;;6015136;23;19937;-68
2023/08/01 02:31:19;;;;;;;;;;;15.80;99.90;;;;;;6019135;23;19928;-67
2023/08/01 02:33:45;;;;;;;;;;;15.80;99.90;;;;;;6020019;23;19945;-68
2023/08/01 02:36:10;;;;;;;;;;;15.80;99.90;;;;;;6021237;23;19936;-67
2023/08/01 02:38:36;;;;;;;;;;;15.90;99.90;;;;;;6021914;23;20006;-67
2023/08/01 02:41:01;;;;;;;;;;;15.90;99.90;;;;;;6020366;23;19959;-68
2023/08/01 02:43:27;;;;;;;;;;;16.00;99.90;;;;;;6019124;23;20019;-67
2023/08/01 02:45:52;;;;;;;;;;;15.90;99.90;;;;;;6019055;23;20353;-68
2023/08/01 02:48:18;;;;;;;;;;;15.90;99.90;;;;;;6020559;23;19926;-67
2023/08/01 02:50:43;;;;;;;;;;;15.80;99.90;;;;;;5995704;23;19932;-67
2023/08/01 02:53:09;;;;;;;;;;;15.80;99.90;;;;;;6022398;23;20004;-67
2023/08/01 02:55:34;;;;;;;;;;;15.80;99.90;;;;;;6023671;23;20663;-67
2023/08/01 02:58:00;;;;;;;;;;;15.80;99.90;;;;;;6021139;23;20054;-67
2023/08/01 03:00:26;;;;;;;;;;;15.90;99.90;;;;;;6022766;23;19956;-67
2023/08/01 03:02:51;;;;;;;;;;;15.90;99.90;;;;;;6021023;23;20552;-67
2023/08/01 03:05:17;;;;;;;;;;;16.00;99.90;;;;;;5997234;23;19932;-68
2023/08/01 03:07:42;;;;;;;;;;;16.00;99.90;;;;;;6023250;23;20697;-67
2023/08/01 03:10:08;;;;;;;;;;;16.00;99.90;;;;;;6020929;23;19926;-64
2023/08/01 03:12:34;;;;;;;;;;;16.00;99.90;;;;;;6021160;23;20235;-64
2023/08/01 03:15:00;;;;;;;;;;;16.00;99.90;;;;;;6020700;23;20772;-64
2023/08/01 03:17:25;;;;;;;;;;;16.00;99.90;;;;;;6021550;23;19930;-64
2023/08/01 03:19:51;;;;;;;;;;;16.00;99.90;;;;;;6019365;23;20268;-64
2023/08/01 03:22:16;;;;;;;;;;;16.00;99.90;;;;;;6022881;23;19956;-64
2023/08/01 03:24:42;;;;;;;;;;;16.10;99.90;;;;;;6023283;23;20005;-64
2023/08/01 03:27:07;;;;;;;;;;;16.10;99.90;;;;;;6021376;23;19927;-68
2023/08/01 03:29:33;;;;;;;;;;;16.20;99.90;;;;;;6017900;23;19929;-68
2023/08/01 03:31:58;;;;;;;;;;;16.20;99.90;;;;;;6022430;23;19935;-67
2023/08/01 03:34:24;;;;;;;;;;;16.30;99.90;;;;;;6021310;23;19945;-67
2023/08/01 03:36:50;;;;;;;;;;;16.30;99.90;;;;;;6022610;23;19953;-67
2023/08/01 03:39:15;;;;;;;;;;;16.40;99.90;;;;;;6023182;23;20330;-67
2023/08/01 03:41:41;;;;;;;;;;;16.40;99.90;;;;;;6021729;23;19952;-67
2023/08/01 03:44:06;;;;;;;;;;;16.40;99.90;;;;;;6018415;23;19971;-64
2023/08/01 03:46:32;;;;;;;;;;;16.40;99.90;;;;;;6021042;23;19928;-64
2023/08/01 03:48:57;;;;;;;;;;;16.40;99.90;;;;;;6021163;23;20228;-65
2023/08/01 03:51:23;;;;;;;;;;;16.40;99.90;;;;;;6022996;23;19992;-64
2023/08/01 03:53:48;;;;;;;;;;;16.40;99.90;;;;;;6023243;23;19930;-64
2023/08/01 03:56:14;;;;;;;;;;;16.50;99.90;;;;;;6023268;23;19927;-65
2023/08/01 03:58:39;;;;;;;;;;;16.50;99.90;;;;;;6020808;23;20413;-64
2023/08/01 04:01:08;;;;;;;;;;;16.60;99.90;;;;;;6020582;23;19945;-64
2023/08/01 04:03:33;;;;;;;;;;;16.60;99.90;;;;;;5995928;23;20361;-64
2023/08/01 04:05:59;;;;;;;;;;;16.70;99.90;;;;;;6021495;23;19929;-65
2023/08/01 04:08:24;;;;;;;;;;;16.60;99.90;;;;;;6022353;23;20230;-65
2023/08/01 04:10:50;;;;;;;;;;;16.70;99.90;;;;;;6021827;23;20406;-65
2023/08/01 04:13:16;;;;;;;;;;;16.70;99.90;;;;;;6020441;23;20426;-65
2023/08/01 04:15:41;;;;;;;;;;;16.80;99.90;;;;;;6023333;23;19938;-64
2023/08/01 04:18:07;;;;;;;;;;;16.80;99.90;;;;;;6019788;23;19934;-64
2023/08/01 04:20:32;;;;;;;;;;;16.90;99.90;;;;;;6022063;23;20371;-64
2023/08/01 04:22:58;;;;;;;;;;;16.90;99.90;;;;;;6023574;23;19928;-64
2023/08/01 04:25:24;;;;;;;;;;;17.00;99.90;;;;;;6020959;23;19931;-64
2023/08/01 04:27:50;;;;;;;;;;;17.10;99.90;;;;;;6020655;23;19942;-64
2023/08/01 04:30:15;;;;;;;;;;;17.20;99.90;;;;;;6020410;23;20778;-65
2023/08/01 04:32:41;;;;;;;;;;;17.20;99.90;;;;;;5997632;23;19931;-65
2023/08/01 04:35:07;;;;;;;;;;;17.30;99.90;;;;;;6020281;23;19947;-65
2023/08/01 04:37:32;;;;;;;;;;;17.50;99.90;;;;;;6020609;23;19928;-64
2023/08/01 04:39:58;;;;;;;;;;;17.50;99.90;;;;;;6021186;23;20026;-65
2023/08/01 04:42:23;;;;;;;;;;;17.50;99.90;;;;;;6021804;23;19929;-64
2023/08/01 04:44:49;;;;;;;;;;;17.50;99.90;;;;;;6020984;23;19966;-64
2023/08/01 04:47:14;;;;;;;;;;;17.50;99.90;;;;;;6021528;23;19924;-64
2023/08/01 04:49:40;;;;;;;;;;;17.70;99.90;;;;;;6020956;23;20459;-64
2023/08/01 04:52:05;;;;;;;;;;;17.80;99.90;;;;;;6019937;23;19936;-64
2023/08/01 04:54:31;;;;;;;;;;;17.90;99.90;;;;;;6019110;23;19929;-64
2023/08/01 04:56:56;;;;;;;;;;;18.00;99.90;;;;;;6021119;23;19998;-64
2023/08/01 04:59:22;;;;;;;;;;;18.20;99.90;;;;;;6017976;23;19926;-65
2023/08/01 05:01:47;;;;;;;;;;;18.30;99.90;;;;;;6020321;23;19952;-64
2023/08/01 05:04:13;;;;;;;;;;;18.40;99.90;;;;;;6020021;23;19923;-64
2023/08/01 05:06:40;;;;;;;;;;;18.50;99.90;;;;;;6018228;23;19925;-64
2023/08/01 05:09:06;;;;;;;;;;;18.60;99.90;;;;;;6018088;23;19983;-65
2023/08/01 05:11:32;;;;;;;;;;;18.70;99.90;;;;;;6022894;23;19948;-64
2023/08/01 05:13:57;;;;;;;;;;;18.80;99.90;;;;;;5990505;23;20347;-64
2023/08/01 05:16:23;;;;;;;;;;;18.90;99.90;;;;;;6021441;23;19932;-64
2023/08/01 05:18:48;;;;;;;;;;;18.90;99.90;;;;;;6019404;23;20578;-65
2023/08/01 05:21:14;;;;;;;;;;;18.90;99.90;;;;;;6017319;23;19948;-64
2023/08/01 05:23:39;;;;;;;;;;;19.10;99.90;;;;;;6022022;23;20090;-65
2023/08/01 05:26:05;;;;;;;;;;;19.10;99.90;;;;;;6023156;23;19926;-65
2023/08/01 05:28:30;;;;;;;;;;;19.20;99.90;;;;;;6017801;23;20406;-65
2023/08/01 05:30:56;;;;;;;;;;;19.20;99.90;;;;;;6021276;23;20653;-65
2023/08/01 05:33:21;;;;;;;;;;;19.20;99.90;;;;;;6022040;23;19943;-65
2023/08/01 05:35:48;;;;;;;;;;;19.40;99.90;;;;;;6023046;23;20317;-67
2023/08/01 05:38:13;;;;;;;;;;;19.50;99.90;;;;;;6021165;23;19925;-67
2023/08/01 05:40:39;;;;;;;;;;;19.60;99.90;;;;;;6022863;23;20266;-67
2023/08/01 05:43:05;;;;;;;;;;;19.60;99.90;;;;;;6020866;23;19945;-67
2023/08/01 05:45:30;;;;;;;;;;;19.80;99.90;;;;;;6023028;23;19943;-67
2023/08/01 05:47:56;;;;;;;;;;;19.80;99.90;;;;;;6000553;23;19930;-67
2023/08/01 05:50:21;;;;;;;;;;;19.90;99.90;;;;;;6024003;23;19932;-67
2023/08/01 05:52:47;;;;;;;;;;;19.90;99.90;;;;;;6026179;23;19935;-68
2023/08/01 05:55:13;;;;;;;;;;;20.00;99.90;;;;;;6024135;23;20515;-64
2023/08/01 05:57:38;;;;;;;;;;;20.10;99.90;;;;;;6023291;23;19954;-64
2023/08/01 06:00:04;;;;;;;;;;;20.00;99.90;;;;;;6024658;23;19985;-64
2023/08/01 06:02:29;;;;;;;;;;;20.00;99.90;;;;;;6023147;23;19926;-65
2023/08/01 06:04:55;;;;;;;;;;;20.00;99.90;;;;;;6020308;23;19932;-65
2023/08/01 06:07:22;;;;;;;;;;;20.00;99.90;;;;;;6024190;23;19927;-65
2023/08/01 06:09:50;;;;;;;;;;;20.00;99.90;;;;;;6024847;23;20026;-65
2023/08/01 06:12:16;;;;;;;;;;;20.00;99.90;;;;;;6025086;23;20498;-68
2023/08/01 06:14:41;;;;;;;;;;;20.10;99.90;;;;;;6021443;23;20009;-65
2023/08/01 06:17:07;;;;;;;;;;;20.20;99.90;;;;;;5998039;23;19932;-64
2023/08/01 06:19:32;;;;;;;;;;;20.20;99.90;;;;;;6024557;23;20349;-64
2023/08/01 06:21:58;;;;;;;;;;;20.20;99.90;;;;;;6025036;23;19959;-64
2023/08/01 06:24:23;;;;;;;;;;;20.20;99.90;;;;;;6022870;23;19926;-64
2023/08/01 06:26:49;;;;;;;;;;;20.20;99.90;;;;;;6024469;23;19926;-64
2023/08/01 06:29:14;;;;;;;;;;;20.20;99.90;;;;;;6023288;23;20000;-64
2023/08/01 06:31:40;;;;;;;;;;;20.30;99.90;;;;;;6017834;23;20330;-64
2023/08/01 06:34:05;;;;;;;;;;;20.30;99.90;;;;;;6025471;23;20024;-64
2023/08/01 06:36:32;;;;;;;;;;;20.40;99.90;;;;;;6023785;23;20006;-64
2023/08/01 06:38:57;;;;;;;;;;;20.40;99.90;;;;;;6019367;23;19930;-64
2023/08/01 06:41:23;;;;;;;;;;;20.40;99.90;;;;;;6022764;23;19948;-64
2023/08/01 06:43:48;;;;;;;;;;;20.40;99.90;;;;;;6021909;23;20045;-64
2023/08/01 06:46:14;;;;;;;;;;;20.50;99.90;;;;;;6023391;23;20013;-64
2023/08/01 06:48:39;;;;;;;;;;;20.50;99.90;;;;;;6021794;23;20140;-64
2023/08/01 06:51:05;;;;;;;;;;;20.60;99.90;;;;;;6021898;23;20019;-64
2023/08/01 06:53:30;;;;;;;;;;;20.70;99.90;;;;;;6023464;23;19934;-63
2023/08/01 06:55:56;;;;;;;;;;;20.80;99.90;;;;;;6022772;23;19962;-64
2023/08/01 06:58:21;;;;;;;;;;;20.90;99.90;;;;;;6020897;23;19936;-65
2023/08/01 07:00:47;;;;;;;;;;;21.00;99.90;;;;;;6021497;23;19947;-64
2023/08/01 07:03:13;;;;;;;;;;;21.20;99.90;;;;;;6023228;23;20004;-64
2023/08/01 07:05:38;;;;;;;;;;;21.30;99.90;;;;;;6022148;23;19950;-64
2023/08/01 07:08:04;;;;;;;;;;;21.50;99.90;;;;;;6019463;23;19925;-64
2023/08/01 07:10:30;;;;;;;;;;;21.60;99.90;;;;;;6024394;23;19924;-63
2023/08/01 07:12:55;;;;;;;;;;;21.70;99.90;;;;;;6025736;23;19931;-64
2023/08/01 07:15:20;;;;;;;;;;;21.80;99.90;;;;;;6025465;23;19934;-64
2023/08/01 07:17:46;;;;;;;;;;;21.90;99.90;;;;;;6025110;23;20007;-64
2023/08/01 07:20:12;;;;;;;;;;;21.90;99.90;;;;;;6022162;23;19938;-64
2023/08/01 07:22:37;;;;;;;;;;;21.90;99.90;;;;;;6022028;23;20580;-64
2023/08/01 07:25:03;;;;;;;;;;;22.10;99.90;;;;;;6022567;23;19933;-64
2023/08/01 07:27:28;;;;;;;;;;;22.10;99.90;;;;;;6022040;23;19999;-69
2023/08/01 07:29:54;;;;;;;;;;;22.10;99.90;;;;;;6021275;23;19926;-70
2023/08/01 07:32:19;;;;;;;;;;;22.20;99.90;;;;;;6021546;23;19924;-70
2023/08/01 07:34:45;;;;;;;;;;;22.40;99.90;;;;;;6023803;23;19938;-69
2023/08/01 07:37:10;;;;;;;;;;;22.50;99.90;;;;;;6025237;23;19954;-69
2023/08/01 07:39:36;;;;;;;;;;;22.60;99.90;;;;;;6025119;23;19927;-68
2023/08/01 07:42:02;;;;;;;;;;;22.70;99.90;;;;;;6022257;23;19934;-68
2023/08/01 07:44:28;;;;;;;;;;;22.70;99.90;;;;;;6019505;23;20107;-64
2023/08/01 07:46:54;;;;;;;;;;;22.90;99.90;;;;;;6021095;23;19932;-64
2023/08/01 07:49:20;;;;;;;;;;;23.00;99.90;;;;;;6016834;23;19928;-64
2023/08/01 07:51:45;;;;;;;;;;;23.20;99.90;;;;;;6022034;23;19927;-64
2023/08/01 07:54:11;;;;;;;;;;;23.30;99.90;;;;;;6020073;23;19924;-65
2023/08/01 07:56:36;;;;;;;;;;;23.30;99.90;;;;;;6019266;23;19980;-64
2023/08/01 07:59:02;;;;;;;;;;;23.40;99.90;;;;;;6020597;23;19972;-64
2023/08/01 08:01:27;;;;;;;;;;;23.50;99.90;;;;;;6019082;23;20005;-69
2023/08/01 08:03:53;;;;;;;;;;;23.60;99.90;;;;;;6021194;23;19928;-68
2023/08/01 08:06:21;;;;;;;;;;;23.70;99.90;;;;;;6021438;23;20373;-66
2023/08/01 08:08:46;;;;;;;;;;;23.80;99.90;;;;;;6025910;23;19921;-66
2023/08/01 08:11:12;;;;;;;;;;;23.80;99.90;;;;;;6026203;23;20009;-67
2023/08/01 08:13:37;;;;;;;;;;;23.80;99.90;;;;;;6018261;23;20408;-67
2023/08/01 08:16:04;;;;;;;;;;;23.80;99.90;;;;;;5993909;23;19930;-67
2023/08/01 08:18:30;;;;;;;;;;;23.70;99.90;;;;;;6017852;23;19924;-67
2023/08/01 08:20:55;;;;;;;;;;;23.70;99.90;;;;;;6021794;23;20252;-67
2023/08/01 08:23:21;;;;;;;;;;;23.70;99.90;;;;;;6017002;23;20262;-67
2023/08/01 08:25:47;;;;;;;;;;;23.80;99.90;;;;;;6019231;23;19925;-67
2023/08/01 08:28:13;;;;;;;;;;;23.80;99.90;;;;;;5989091;23;19926;-67
2023/08/01 08:30:39;;;;;;;;;;;23.80;99.90;;;;;;6019341;23;19982;-68
2023/08/01 08:33:06;;;;;;;;;;;23.80;99.90;;;;;;6020079;23;20369;-69
2023/08/01 08:35:33;;;;;;;;;;;23.90;99.90;;;;;;6016924;23;19936;-69
2023/08/01 08:37:59;;;;;;;;;;;24.00;99.90;;;;;;6018681;23;19927;-69
2023/08/01 08:40:24;;;;;;;;;;;24.10;99.90;;;;;;6019690;23;19957;-69
2023/08/01 08:42:52;;;;;;;;;;;24.20;99.90;;;;;;6013861;23;20673;-69
2023/08/01 08:45:18;;;;;;;;;;;24.30;99.90;;;;;;6024202;23;20398;-70
2023/08/01 08:47:44;;;;;;;;;;;24.30;99.90;;;;;;6026746;23;19980;-69
2023/08/01 08:50:10;;;;;;;;;;;24.40;99.90;;;;;;6020938;23;19937;-70
2023/08/01 08:52:36;;;;;;;;;;;24.50;99.90;;;;;;6018869;23;19925;-69
2023/08/01 08:55:02;;;;;;;;;;;24.70;99.90;;;;;;6022629;23;20097;-69
2023/08/01 08:57:29;;;;;;;;;;;24.80;99.90;;;;;;6013375;23;20571;-69
2023/08/01 08:59:55;;;;;;;;;;;24.90;99.90;;;;;;6018553;23;19929;-69
2023/08/01 09:02:22;;;;;;;;;;;24.90;99.90;;;;;;6017603;23;20058;-69
2023/08/01 09:04:47;;;;;;;;;;;24.90;99.90;;;;;;6021286;23;20355;-69
2023/08/01 09:07:14;;;;;;;;;;;24.90;99.90;;;;;;6020987;23;19929;-70
2023/08/01 09:09:40;;;;;;;;;;;24.90;99.90;;;;;;5995453;23;19968;-68
2023/08/01 09:12:07;;;;;;;;;;;24.90;99.90;;;;;;6025427;23;19949;-70
2023/08/01 09:14:32;;;;;;;;;;;25.10;99.90;;;;;;5996163;23;20461;-64
2023/08/01 09:17:10;;;;;;;;;;;25.10;99.90;;;;;;6026305;23;20009;-66
2023/08/01 09:19:36;;;;;;;;;;;25.10;99.90;;;;;;6022634;23;19928;-73
2023/08/01 09:22:09;;;;;;;;;;;25.00;99.90;;;;;;6022674;23;20293;-68
2023/08/01 09:24:34;;;;;;;;;;;25.10;99.90;;;;;;6025419;23;19935;-68
2023/08/01 09:27:08;;;;;;;;;;;25.10;99.90;;;;;;6025220;23;19998;-70
2023/08/01 09:29:33;;;;;;;;;;;25.10;99.90;;;;;;6016089;23;19921;-67
2023/08/01 09:31:59;;;;;;;;;;;25.20;99.90;;;;;;6022450;23;19928;-67
2023/08/01 09:34:25;;;;;;;;;;;25.30;99.90;;;;;;6024180;23;20553;-66
2023/08/01 09:36:51;;;;;;;;;;;25.30;99.90;;;;;;5997250;23;20413;-68
2023/08/01 09:39:17;;;;;;;;;;;25.30;99.90;;;;;;6021105;23;20011;-68
2023/08/01 09:41:43;;;;;;;;;;;25.50;99.90;;;;;;6022434;23;19953;-69
2023/08/01 09:44:15;;;;;;;;;;;25.70;99.90;;;;;;6019644;23;19962;-68
2023/08/01 09:46:40;;;;;;;;;;;25.90;99.90;;;;;;6027165;23;19928;-68
2023/08/01 09:49:12;;;;;;;;;;;25.90;99.90;;;;;;6024888;23;20292;-68
2023/08/01 09:51:48;;;;;;;;;;;26.00;99.90;;;;;;6025220;23;19947;-68
2023/08/01 09:54:15;;;;;;;;;;;26.00;99.90;;;;;;6017024;23;20342;-68
2023/08/01 09:56:44;;;;;;;;;;;25.90;99.90;;;;;;6025711;23;19933;-67
2023/08/01 09:59:10;;;;;;;;;;;25.80;99.90;;;;;;6022659;23;20673;-70
2023/08/01 10:01:35;;;;;;;;;;;25.70;99.90;;;;;;6022383;23;20016;-70
2023/08/01 10:04:01;;;;;;;;;;;25.70;99.90;;;;;;6023071;23;19946;-70
2023/08/01 10:06:32;;;;;;;;;;;25.80;99.90;;;;;;6021668;23;19910;-69
2023/08/01 10:08:59;;;;;;;;;;;25.90;99.90;;;;;;6022239;23;19924;-70
2023/08/01 10:11:26;;;;;;;;;;;26.10;99.90;;;;;;6023985;23;19930;-69
2023/08/01 10:13:51;;;;;;;;;;;26.20;99.90;;;;;;6023231;23;19958;-69
2023/08/01 10:16:17;;;;;;;;;;;26.30;99.90;;;;;;5992685;23;20111;-69
2023/08/01 10:18:43;;;;;;;;;;;26.20;99.90;;;;;;6021015;23;20017;-69
2023/08/01 10:21:11;;;;;;;;;;;26.20;99.90;;;;;;6022843;23;19950;-68
2023/08/01 10:23:37;;;;;;;;;;;26.40;99.90;;;;;;6023264;23;20046;-69
2023/08/01 10:26:03;;;;;;;;;;;26.50;99.90;;;;;;6024331;23;20321;-69
2023/08/01 10:28:39;;;;;;;;;;;26.70;99.90;;;;;;6020515;23;19934;-67
2023/08/01 10:31:12;;;;;;;;;;;26.90;99.90;;;;;;6022727;23;19940;-67
2023/08/01 10:33:41;;;;;;;;;;;27.10;99.90;;;;;;6016884;23;20402;-67
2023/08/01 10:36:13;;;;;;;;;;;27.20;99.90;;;;;;5996713;23;20426;-67
2023/08/01 10:38:46;;;;;;;;;;;27.20;99.90;;;;;;5996911;23;20352;-76
2023/08/01 10:41:27;;;;;;;;;;;27.10;99.90;;;;;;6025270;23;20016;-74
2023/08/01 10:44:03;;;;;;;;;;;27.10;99.90;;;;;;6023476;23;19922;-74
2023/08/01 10:46:29;;;;;;;;;;;27.10;99.90;;;;;;6026410;23;19989;-74
2023/08/01 10:48:54;;;;;;;;;;;27.10;99.90;;;;;;6021520;23;19929;-71
2023/08/01 10:51:20;;;;;;;;;;;27.20;99.90;;;;;;6019634;23;20082;-70
2023/08/01 10:53:46;;;;;;;;;;;27.20;99.90;;;;;;6020744;23;19929;-69
2023/08/01 10:56:20;;;;;;;;;;;27.00;99.90;;;;;;6023487;23;19956;-70
2023/08/01 10:58:46;;;;;;;;;;;27.00;99.90;;;;;;6020596;23;19922;-69
2023/08/01 11:01:12;;;;;;;;;;;26.90;99.90;;;;;;5994575;23;20003;-72
2023/08/01 11:03:38;;;;;;;;;;;26.70;99.30;;;;;;6018319;23;20011;-71
2023/08/01 11:06:04;;;;;;;;;;;26.60;99.90;;;;;;6024176;23;19935;-73
2023/08/01 11:08:36;;;;;;;;;;;26.60;99.10;;;;;;6027176;23;19951;-74
2023/08/01 11:11:03;;;;;;;;;;;26.70;99.60;;;;;;6028648;23;20003;-70
2023/08/01 11:13:28;;;;;;;;;;;26.80;99.90;;;;;;6025534;23;19924;-70
2023/08/01 11:15:56;;;;;;;;;;;26.90;99.90;;;;;;6027840;23;19924;-70
2023/08/01 11:18:21;;;;;;;;;;;26.90;99.90;;;;;;6026592;23;19947;-70
2023/08/01 11:20:47;;;;;;;;;;;26.90;98.20;;;;;;6023440;23;19948;-70
2023/08/01 11:23:12;;;;;;;;;;;26.80;98.60;;;;;;6028385;23;19936;-70
2023/08/01 11:25:39;;;;;;;;;;;26.80;99.90;;;;;;6028692;23;20233;-70
2023/08/01 11:28:13;;;;;;;;;;;26.80;98.60;;;;;;6028212;23;20054;-71
2023/08/01 11:30:39;;;;;;;;;;;26.80;99.70;;;;;;6028528;23;19926;-71
2023/08/01 11:33:14;;;;;;;;;;;26.80;99.00;;;;;;6022701;23;19949;-69
2023/08/01 11:35:40;;;;;;;;;;;26.70;98.10;;;;;;6028663;23;19937;-67
2023/08/01 11:38:06;;;;;;;;;;;26.60;97.90;;;;;;6028236;23;19953;-67
2023/08/01 11:40:32;;;;;;;;;;;26.60;98.60;;;;;;6027197;23;20416;-67
2023/08/01 11:42:58;;;;;;;;;;;26.60;98.00;;;;;;6022263;23;19930;-67
2023/08/01 11:45:24;;;;;;;;;;;26.60;98.60;;;;;;6000265;23;19995;-66
2023/08/01 11:47:51;;;;;;;;;;;26.60;98.40;;;;;;5995719;23;20422;-66
2023/08/01 11:50:23;;;;;;;;;;;26.60;97.50;;;;;;5999752;23;19991;-66
2023/08/01 11:52:49;;;;;;;;;;;26.60;97.00;;;;;;6000238;23;19941;-66
2023/08/01 11:55:25;;;;;;;;;;;26.60;96.80;;;;;;5992731;23;20004;-66
2023/08/01 11:57:57;;;;;;;;;;;26.60;96.20;;;;;;5997794;23;20667;-66
2023/08/01 12:00:23;;;;;;;;;;;26.60;96.50;;;;;;6000392;23;19948;-66
2023/08/01 12:02:49;;;;;;;;;;;26.60;97.00;;;;;;5995602;23;19928;-66
2023/08/01 12:05:21;;;;;;;;;;;26.60;96.50;;;;;;5995139;23;19939;-66
2023/08/01 12:07:46;;;;;;;;;;;26.70;98.00;;;;;;5996414;23;20339;-66
2023/08/01 12:10:12;;;;;;;;;;;26.80;96.70;;;;;;5996986;23;19934;-66
2023/08/01 12:12:43;;;;;;;;;;;26.80;96.10;;;;;;5995545;23;19934;-66
2023/08/01 12:15:09;;;;;;;;;;;26.80;95.70;;;;;;5995757;23;19923;-67
2023/08/01 12:17:34;;;;;;;;;;;26.70;95.40;;;;;;5996606;23;19927;-67
2023/08/01 12:20:00;;;;;;;;;;;26.60;95.20;;;;;;5996682;23;19935;-67
2023/08/01 12:22:25;;;;;;;;;;;26.60;96.50;;;;;;5995192;23;19941;-73
2023/08/01 12:24:51;;;;;;;;;;;26.60;94.90;;;;;;5996019;23;19936;-72
2023/08/01 12:27:16;;;;;;;;;;;26.50;94.40;;;;;;5997639;23;19925;-72
2023/08/01 12:29:42;;;;;;;;;;;26.50;96.40;;;;;;5995047;23;20308;-72
2023/08/01 12:32:07;;;;;;;;;;;26.50;97.10;;;;;;5998787;23;19930;-72
2023/08/01 12:34:34;;;;;;;;;;;26.50;97.20;;;;;;5998976;23;19964;-72
2023/08/01 12:36:59;;;;;;;;;;;26.40;97.10;;;;;;5996846;23;19920;-72
2023/08/01 12:39:25;;;;;;;;;;;26.40;96.60;;;;;;5995852;23;20343;-72
2023/08/01 12:41:52;;;;;;;;;;;26.40;97.70;;;;;;6020220;23;19952;-73
2023/08/01 12:44:18;;;;;;;;;;;26.40;97.70;;;;;;6012591;23;19968;-72
2023/08/01 12:46:43;;;;;;;;;;;26.40;97.30;;;;;;6026008;23;19933;-72
2023/08/01 12:49:09;;;;;;;;;;;26.40;98.40;;;;;;6023563;23;19929;-72
2023/08/01 12:51:34;;;;;;;;;;;26.30;99.10;;;;;;6027438;23;19925;-73
2023/08/01 12:54:00;;;;;;;;;;;26.30;98.40;;;;;;6024685;23;19925;-72
2023/08/01 12:56:26;;;;;;;;;;;26.30;99.00;;;;;;6025490;23;20289;-72
2023/08/01 12:58:51;;;;;;;;;;;26.40;99.90;;;;;;6000904;23;19938;-72
2023/08/01 13:01:16;;;;;;;;;;;26.30;98.60;;;;;;6024738;23;19960;-72
2023/08/01 13:03:42;;;;;;;;;;;26.30;98.80;;;;;;6027209;23;19958;-72
2023/08/01 13:06:10;;;;;;;;;;;26.30;98.70;;;;;;6028135;23;19924;-73
2023/08/01 13:08:35;;;;;;;;;;;26.30;99.90;;;;;;6027371;23;19926;-72
2023/08/01 13:11:02;;;;;;;;;;;26.40;99.80;;;;;;6027818;23;19937;-72
2023/08/01 13:13:28;;;;;;;;;;;26.50;99.20;;;;;;6025336;23;19926;-72
2023/08/01 13:15:55;;;;;;;;;;;26.60;97.20;;;;;;6026969;23;20294;-72
2023/08/01 13:18:21;;;;;;;;;;;26.60;97.20;;;;;;5996585;23;20271;-67
2023/08/01 13:20:46;;;;;;;;;;;26.60;97.50;;;;;;6024223;23;19949;-67
2023/08/01 13:23:12;;;;;;;;;;;26.70;97.20;;;;;;6024134;23;19959;-66
2023/08/01 13:25:37;;;;;;;;;;;26.90;97.60;;;;;;6027936;23;19933;-67
2023/08/01 13:28:03;;;;;;;;;;;27.10;98.10;;;;;;6025885;23;19940;-67
2023/08/01 13:30:29;;;;;;;;;;;27.20;97.90;;;;;;6027884;23;20190;-67
2023/08/01 13:32:54;;;;;;;;;;;27.40;97.60;;;;;;6027257;23;19954;-67
2023/08/01 13:35:20;;;;;;;;;;;27.60;97.70;;;;;;6026036;23;20537;-72
2023/08/01 13:37:45;;;;;;;;;;;27.60;95.80;;;;;;6025909;23;19994;-73
2023/08/01 13:40:13;;;;;;;;;;;27.60;96.10;;;;;;6026488;23;20014;-73
2023/08/01 13:42:39;;;;;;;;;;;27.60;96.30;;;;;;6026476;23;19928;-73
2023/08/01 13:45:05;;;;;;;;;;;27.60;95.20;;;;;;6026458;23;20406;-73
2023/08/01 13:47:30;;;;;;;;;;;27.50;95.80;;;;;;6025559;23;20024;-73
2023/08/01 13:49:56;;;;;;;;;;;27.50;96.20;;;;;;6024660;23;20441;-73
2023/08/01 13:52:22;;;;;;;;;;;27.40;95.30;;;;;;6027041;23;20032;-72
2023/08/01 13:54:47;;;;;;;;;;;27.50;95.20;;;;;;6027003;23;20384;-67
2023/08/01 13:57:13;;;;;;;;;;;27.40;94.80;;;;;;6026351;23;20316;-67
2023/08/01 13:59:38;;;;;;;;;;;27.40;94.40;;;;;;6022868;23;19935;-67
2023/08/01 14:02:04;;;;;;;;;;;27.30;95.50;;;;;;6026559;23;19988;-67
2023/08/01 14:04:30;;;;;;;;;;;27.30;95.30;;;;;;6022640;23;19932;-66
2023/08/01 14:06:55;;;;;;;;;;;27.30;95.00;;;;;;6028428;23;19936;-67
2023/08/01 14:09:21;;;;;;;;;;;27.20;94.20;;;;;;6029442;23;19944;-67
2023/08/01 14:11:46;;;;;;;;;;;27.10;95.00;;;;;;6027083;23;19954;-73
2023/08/01 14:14:12;;;;;;;;;;;27.00;95.40;;;;;;6025747;23;20730;-73